sensor_id;sensor_type;location;lat;lon;timestamp;P1;durP1;ratioP1;P2;durP2;ratioP2
59907;SDS011;61804;54.926;73.496;2023-04-06T00:00:34;4.82;;;2.70;;
59907;SDS011;61804;54.926;73.496;2023-04-06T00:03:03;9.13;;;5.50;;
59907;SDS011;61804;54.926;73.496;2023-04-06T00:05:30;4.82;;;3.25;;
59907;SDS011;61804;54.926;73.496;2023-04-06T00:07:57;5.07;;;3.25;;
59907;SDS011;61804;54.926;73.496;2023-04-06T00:10:25;3.22;;;2.97;;
59907;SDS011;61804;54.926;73.496;2023-04-06T00:12:54;11.45;;;3.67;;
59907;SDS011;61804;54.926;73.496;2023-04-06T00:15:25;3.65;;;2.65;;
59907;SDS011;61804;54.926;73.496;2023-04-06T00:17:57;3.42;;;2.50;;
59907;SDS011;61804;54.926;73.496;2023-04-06T00:20:24;4.95;;;3.17;;
59907;SDS011;61804;54.926;73.496;2023-04-06T00:22:52;5.15;;;3.38;;
59907;SDS011;61804;54.926;73.496;2023-04-06T00:25:31;4.25;;;3.47;;
59907;SDS011;61804;54.926;73.496;2023-04-06T00:27:59;4.30;;;3.22;;
59907;SDS011;61804;54.926;73.496;2023-04-06T00:30:37;3.70;;;2.03;;
59907;SDS011;61804;54.926;73.496;2023-04-06T00:33:04;5.05;;;3.08;;
59907;SDS011;61804;54.926;73.496;2023-04-06T00:35:32;3.28;;;2.40;;
59907;SDS011;61804;54.926;73.496;2023-04-06T00:38:00;5.00;;;3.55;;
59907;SDS011;61804;54.926;73.496;2023-04-06T00:40:28;4.00;;;2.45;;
59907;SDS011;61804;54.926;73.496;2023-04-06T00:43:06;5.50;;;3.80;;
59907;SDS011;61804;54.926;73.496;2023-04-06T00:45:33;9.00;;;3.30;;
59907;SDS011;61804;54.926;73.496;2023-04-06T00:48:01;4.10;;;2.28;;
59907;SDS011;61804;54.926;73.496;2023-04-06T00:50:34;3.10;;;2.63;;
59907;SDS011;61804;54.926;73.496;2023-04-06T00:53:01;5.03;;;3.40;;
59907;SDS011;61804;54.926;73.496;2023-04-06T00:55:29;3.70;;;2.50;;
59907;SDS011;61804;54.926;73.496;2023-04-06T00:57:59;5.20;;;2.42;;
59907;SDS011;61804;54.926;73.496;2023-04-06T01:00:30;3.33;;;2.58;;
59907;SDS011;61804;54.926;73.496;2023-04-06T01:03:01;3.47;;;3.08;;
59907;SDS011;61804;54.926;73.496;2023-04-06T01:08:11;7.80;;;3.22;;
59907;SDS011;61804;54.926;73.496;2023-04-06T01:10:44;8.63;;;2.78;;
59907;SDS011;61804;54.926;73.496;2023-04-06T01:13:22;3.22;;;2.85;;
59907;SDS011;61804;54.926;73.496;2023-04-06T01:15:57;3.15;;;2.88;;
59907;SDS011;61804;54.926;73.496;2023-04-06T01:18:32;3.50;;;3.03;;
59907;SDS011;61804;54.926;73.496;2023-04-06T01:21:18;4.32;;;2.85;;
59907;SDS011;61804;54.926;73.496;2023-04-06T01:24:02;7.05;;;4.20;;
59907;SDS011;61804;54.926;73.496;2023-04-06T01:26:41;4.22;;;3.38;;
59907;SDS011;61804;54.926;73.496;2023-04-06T01:29:15;5.97;;;4.50;;
59907;SDS011;61804;54.926;73.496;2023-04-06T01:31:43;9.10;;;5.40;;
59907;SDS011;61804;54.926;73.496;2023-04-06T01:34:11;7.40;;;4.18;;
59907;SDS011;61804;54.926;73.496;2023-04-06T01:36:39;4.53;;;3.85;;
59907;SDS011;61804;54.926;73.496;2023-04-06T01:39:27;5.55;;;4.28;;
59907;SDS011;61804;54.926;73.496;2023-04-06T01:41:55;7.15;;;3.38;;
59907;SDS011;61804;54.926;73.496;2023-04-06T01:44:25;8.63;;;4.95;;
59907;SDS011;61804;54.926;73.496;2023-04-06T01:47:04;3.63;;;3.03;;
59907;SDS011;61804;54.926;73.496;2023-04-06T01:49:39;7.07;;;3.00;;
59907;SDS011;61804;54.926;73.496;2023-04-06T01:52:06;6.65;;;3.90;;
59907;SDS011;61804;54.926;73.496;2023-04-06T01:54:43;4.47;;;3.55;;
59907;SDS011;61804;54.926;73.496;2023-04-06T01:57:16;10.55;;;4.28;;
59907;SDS011;61804;54.926;73.496;2023-04-06T01:59:52;4.70;;;3.30;;
59907;SDS011;61804;54.926;73.496;2023-04-06T02:02:31;7.70;;;4.82;;
59907;SDS011;61804;54.926;73.496;2023-04-06T02:05:16;11.45;;;6.55;;
59907;SDS011;61804;54.926;73.496;2023-04-06T02:07:44;6.43;;;3.67;;
59907;SDS011;61804;54.926;73.496;2023-04-06T02:10:15;19.35;;;13.77;;
59907;SDS011;61804;54.926;73.496;2023-04-06T02:12:45;7.25;;;6.00;;
59907;SDS011;61804;54.926;73.496;2023-04-06T02:15:30;5.65;;;3.50;;
59907;SDS011;61804;54.926;73.496;2023-04-06T02:17:58;8.85;;;5.30;;
59907;SDS011;61804;54.926;73.496;2023-04-06T02:20:26;9.88;;;5.85;;
59907;SDS011;61804;54.926;73.496;2023-04-06T02:22:56;4.97;;;3.15;;
59907;SDS011;61804;54.926;73.496;2023-04-06T02:25:25;5.95;;;3.58;;
59907;SDS011;61804;54.926;73.496;2023-04-06T02:27:54;5.72;;;3.50;;
59907;SDS011;61804;54.926;73.496;2023-04-06T02:30:22;5.72;;;3.72;;
59907;SDS011;61804;54.926;73.496;2023-04-06T02:32:50;10.45;;;4.53;;
59907;SDS011;61804;54.926;73.496;2023-04-06T02:35:17;5.63;;;3.17;;
59907;SDS011;61804;54.926;73.496;2023-04-06T02:37:58;5.20;;;3.55;;
59907;SDS011;61804;54.926;73.496;2023-04-06T02:40:28;8.77;;;6.97;;
59907;SDS011;61804;54.926;73.496;2023-04-06T02:42:58;17.20;;;7.95;;
59907;SDS011;61804;54.926;73.496;2023-04-06T02:45:31;36.58;;;8.50;;
59907;SDS011;61804;54.926;73.496;2023-04-06T02:48:09;18.17;;;7.97;;
59907;SDS011;61804;54.926;73.496;2023-04-06T02:50:40;8.68;;;5.03;;
59907;SDS011;61804;54.926;73.496;2023-04-06T02:53:09;15.10;;;10.10;;
59907;SDS011;61804;54.926;73.496;2023-04-06T02:55:39;12.20;;;3.58;;
59907;SDS011;61804;54.926;73.496;2023-04-06T02:58:07;3.88;;;2.72;;
59907;SDS011;61804;54.926;73.496;2023-04-06T03:00:46;7.57;;;3.20;;
59907;SDS011;61804;54.926;73.496;2023-04-06T03:03:14;21.73;;;13.85;;
59907;SDS011;61804;54.926;73.496;2023-04-06T03:05:43;17.00;;;4.38;;
59907;SDS011;61804;54.926;73.496;2023-04-06T03:08:19;6.53;;;4.15;;
59907;SDS011;61804;54.926;73.496;2023-04-06T03:10:48;15.13;;;10.30;;
59907;SDS011;61804;54.926;73.496;2023-04-06T03:13:22;11.50;;;9.50;;
59907;SDS011;61804;54.926;73.496;2023-04-06T03:15:55;3.42;;;2.95;;
59907;SDS011;61804;54.926;73.496;2023-04-06T03:18:24;3.47;;;3.15;;
59907;SDS011;61804;54.926;73.496;2023-04-06T03:20:55;13.77;;;5.68;;
59907;SDS011;61804;54.926;73.496;2023-04-06T03:23:32;3.75;;;2.22;;
59907;SDS011;61804;54.926;73.496;2023-04-06T03:26:12;2.42;;;2.22;;
59907;SDS011;61804;54.926;73.496;2023-04-06T03:28:40;2.17;;;2.03;;
59907;SDS011;61804;54.926;73.496;2023-04-06T03:31:08;4.20;;;2.85;;
59907;SDS011;61804;54.926;73.496;2023-04-06T03:33:44;10.73;;;2.00;;
59907;SDS011;61804;54.926;73.496;2023-04-06T03:36:19;2.20;;;1.40;;
59907;SDS011;61804;54.926;73.496;2023-04-06T03:38:47;1.75;;;1.55;;
59907;SDS011;61804;54.926;73.496;2023-04-06T03:41:15;5.68;;;2.58;;
59907;SDS011;61804;54.926;73.496;2023-04-06T03:43:51;3.85;;;3.28;;
59907;SDS011;61804;54.926;73.496;2023-04-06T03:46:19;2.80;;;1.73;;
59907;SDS011;61804;54.926;73.496;2023-04-06T03:48:52;3.50;;;2.80;;
59907;SDS011;61804;54.926;73.496;2023-04-06T03:51:23;9.85;;;2.83;;
59907;SDS011;61804;54.926;73.496;2023-04-06T03:53:50;4.30;;;2.38;;
59907;SDS011;61804;54.926;73.496;2023-04-06T03:56:18;3.95;;;2.58;;
59907;SDS011;61804;54.926;73.496;2023-04-06T03:58:47;7.00;;;2.67;;
59907;SDS011;61804;54.926;73.496;2023-04-06T04:01:17;9.55;;;2.85;;
59907;SDS011;61804;54.926;73.496;2023-04-06T04:03:45;3.40;;;2.30;;
59907;SDS011;61804;54.926;73.496;2023-04-06T04:06:19;7.45;;;2.50;;
59907;SDS011;61804;54.926;73.496;2023-04-06T04:08:46;3.97;;;2.88;;
59907;SDS011;61804;54.926;73.496;2023-04-06T04:11:16;2.70;;;2.45;;
59907;SDS011;61804;54.926;73.496;2023-04-06T04:13:47;4.22;;;2.50;;
59907;SDS011;61804;54.926;73.496;2023-04-06T04:16:17;3.78;;;2.38;;
59907;SDS011;61804;54.926;73.496;2023-04-06T04:18:45;12.93;;;3.42;;
59907;SDS011;61804;54.926;73.496;2023-04-06T04:21:14;2.65;;;2.10;;
59907;SDS011;61804;54.926;73.496;2023-04-06T04:23:42;4.80;;;2.22;;
59907;SDS011;61804;54.926;73.496;2023-04-06T04:26:10;4.65;;;2.22;;
59907;SDS011;61804;54.926;73.496;2023-04-06T04:28:38;22.92;;;3.83;;
59907;SDS011;61804;54.926;73.496;2023-04-06T04:31:06;3.33;;;2.50;;
59907;SDS011;61804;54.926;73.496;2023-04-06T04:33:34;3.35;;;1.60;;
59907;SDS011;61804;54.926;73.496;2023-04-06T04:36:13;3.08;;;2.28;;
59907;SDS011;61804;54.926;73.496;2023-04-06T04:38:44;8.48;;;2.63;;
59907;SDS011;61804;54.926;73.496;2023-04-06T04:41:12;12.82;;;2.58;;
59907;SDS011;61804;54.926;73.496;2023-04-06T04:43:48;9.55;;;4.43;;
59907;SDS011;61804;54.926;73.496;2023-04-06T04:46:20;2.83;;;2.42;;
59907;SDS011;61804;54.926;73.496;2023-04-06T04:48:48;3.72;;;3.00;;
59907;SDS011;61804;54.926;73.496;2023-04-06T04:51:16;3.33;;;2.10;;
59907;SDS011;61804;54.926;73.496;2023-04-06T04:54:11;4.95;;;2.50;;
59907;SDS011;61804;54.926;73.496;2023-04-06T04:56:41;4.18;;;2.65;;
59907;SDS011;61804;54.926;73.496;2023-04-06T04:59:27;2.63;;;2.42;;
59907;SDS011;61804;54.926;73.496;2023-04-06T05:02:02;9.82;;;3.30;;
59907;SDS011;61804;54.926;73.496;2023-04-06T05:04:42;3.80;;;1.98;;
59907;SDS011;61804;54.926;73.496;2023-04-06T05:07:13;2.08;;;1.73;;
59907;SDS011;61804;54.926;73.496;2023-04-06T05:09:42;3.72;;;1.88;;
59907;SDS011;61804;54.926;73.496;2023-04-06T05:12:17;5.22;;;1.92;;
59907;SDS011;61804;54.926;73.496;2023-04-06T05:15:04;6.18;;;2.35;;
59907;SDS011;61804;54.926;73.496;2023-04-06T05:17:34;5.10;;;3.50;;
59907;SDS011;61804;54.926;73.496;2023-04-06T05:20:03;4.15;;;3.10;;
59907;SDS011;61804;54.926;73.496;2023-04-06T05:22:36;84.82;;;22.45;;
59907;SDS011;61804;54.926;73.496;2023-04-06T05:25:08;9.88;;;2.75;;
59907;SDS011;61804;54.926;73.496;2023-04-06T05:27:42;9.02;;;3.15;;
59907;SDS011;61804;54.926;73.496;2023-04-06T05:30:26;7.03;;;4.57;;
59907;SDS011;61804;54.926;73.496;2023-04-06T05:32:53;5.95;;;2.60;;
59907;SDS011;61804;54.926;73.496;2023-04-06T05:35:24;3.13;;;2.72;;
59907;SDS011;61804;54.926;73.496;2023-04-06T05:37:56;27.17;;;11.13;;
59907;SDS011;61804;54.926;73.496;2023-04-06T05:40:25;50.45;;;43.38;;
59907;SDS011;61804;54.926;73.496;2023-04-06T05:42:54;34.97;;;19.15;;
59907;SDS011;61804;54.926;73.496;2023-04-06T05:45:23;10.70;;;6.05;;
59907;SDS011;61804;54.926;73.496;2023-04-06T05:47:55;49.30;;;21.35;;
59907;SDS011;61804;54.926;73.496;2023-04-06T05:50:31;25.90;;;15.05;;
59907;SDS011;61804;54.926;73.496;2023-04-06T05:52:59;6.68;;;4.20;;
59907;SDS011;61804;54.926;73.496;2023-04-06T05:55:40;8.60;;;6.80;;
59907;SDS011;61804;54.926;73.496;2023-04-06T06:00:44;7.35;;;3.28;;
59907;SDS011;61804;54.926;73.496;2023-04-06T06:03:14;12.55;;;5.35;;
59907;SDS011;61804;54.926;73.496;2023-04-06T06:05:47;8.43;;;3.33;;
59907;SDS011;61804;54.926;73.496;2023-04-06T06:08:22;3.67;;;2.63;;
59907;SDS011;61804;54.926;73.496;2023-04-06T06:11:01;5.20;;;2.65;;
59907;SDS011;61804;54.926;73.496;2023-04-06T06:13:29;16.25;;;4.78;;
59907;SDS011;61804;54.926;73.496;2023-04-06T06:15:57;10.80;;;3.80;;
59907;SDS011;61804;54.926;73.496;2023-04-06T06:18:35;7.60;;;3.42;;
59907;SDS011;61804;54.926;73.496;2023-04-06T06:21:05;5.72;;;3.22;;
59907;SDS011;61804;54.926;73.496;2023-04-06T06:23:32;13.95;;;12.55;;
59907;SDS011;61804;54.926;73.496;2023-04-06T06:26:00;5.45;;;3.00;;
59907;SDS011;61804;54.926;73.496;2023-04-06T06:28:30;4.20;;;3.17;;
59907;SDS011;61804;54.926;73.496;2023-04-06T06:30:58;8.48;;;5.57;;
59907;SDS011;61804;54.926;73.496;2023-04-06T06:33:26;4.28;;;2.85;;
59907;SDS011;61804;54.926;73.496;2023-04-06T06:35:56;5.18;;;2.85;;
59907;SDS011;61804;54.926;73.496;2023-04-06T06:38:24;10.27;;;4.18;;
59907;SDS011;61804;54.926;73.496;2023-04-06T06:40:53;5.47;;;2.70;;
59907;SDS011;61804;54.926;73.496;2023-04-06T06:43:21;7.05;;;2.42;;
59907;SDS011;61804;54.926;73.496;2023-04-06T06:45:57;4.78;;;2.50;;
59907;SDS011;61804;54.926;73.496;2023-04-06T06:48:25;26.20;;;5.57;;
59907;SDS011;61804;54.926;73.496;2023-04-06T06:50:59;3.15;;;1.75;;
59907;SDS011;61804;54.926;73.496;2023-04-06T06:53:28;5.88;;;2.97;;
59907;SDS011;61804;54.926;73.496;2023-04-06T06:55:56;6.28;;;3.30;;
59907;SDS011;61804;54.926;73.496;2023-04-06T06:58:24;5.55;;;2.05;;
59907;SDS011;61804;54.926;73.496;2023-04-06T07:01:02;4.65;;;2.92;;
59907;SDS011;61804;54.926;73.496;2023-04-06T07:03:32;11.05;;;3.88;;
59907;SDS011;61804;54.926;73.496;2023-04-06T07:05:59;5.95;;;3.20;;
59907;SDS011;61804;54.926;73.496;2023-04-06T07:08:27;11.13;;;3.05;;
59907;SDS011;61804;54.926;73.496;2023-04-06T07:10:55;4.00;;;2.40;;
59907;SDS011;61804;54.926;73.496;2023-04-06T07:13:25;2.42;;;2.22;;
59907;SDS011;61804;54.926;73.496;2023-04-06T07:15:57;3.70;;;2.50;;
59907;SDS011;61804;54.926;73.496;2023-04-06T07:18:25;16.55;;;3.05;;
59907;SDS011;61804;54.926;73.496;2023-04-06T07:20:53;6.28;;;4.90;;
59907;SDS011;61804;54.926;73.496;2023-04-06T07:23:20;5.72;;;2.28;;
59907;SDS011;61804;54.926;73.496;2023-04-06T07:25:48;9.43;;;2.80;;
59907;SDS011;61804;54.926;73.496;2023-04-06T07:28:18;4.05;;;1.95;;
59907;SDS011;61804;54.926;73.496;2023-04-06T07:30:47;5.53;;;4.38;;
59907;SDS011;61804;54.926;73.496;2023-04-06T07:33:20;7.90;;;3.58;;
59907;SDS011;61804;54.926;73.496;2023-04-06T07:35:47;15.23;;;3.22;;
59907;SDS011;61804;54.926;73.496;2023-04-06T07:38:16;4.60;;;2.50;;
59907;SDS011;61804;54.926;73.496;2023-04-06T07:40:43;6.13;;;2.80;;
59907;SDS011;61804;54.926;73.496;2023-04-06T07:43:11;5.20;;;3.83;;
59907;SDS011;61804;54.926;73.496;2023-04-06T07:45:40;3.42;;;2.28;;
59907;SDS011;61804;54.926;73.496;2023-04-06T07:48:08;5.30;;;3.40;;
59907;SDS011;61804;54.926;73.496;2023-04-06T07:50:37;7.20;;;2.95;;
59907;SDS011;61804;54.926;73.496;2023-04-06T07:53:08;5.20;;;2.33;;
59907;SDS011;61804;54.926;73.496;2023-04-06T07:55:39;7.32;;;1.67;;
59907;SDS011;61804;54.926;73.496;2023-04-06T07:58:07;5.47;;;2.45;;
59907;SDS011;61804;54.926;73.496;2023-04-06T08:00:40;5.38;;;1.88;;
59907;SDS011;61804;54.926;73.496;2023-04-06T08:03:09;4.25;;;2.20;;
59907;SDS011;61804;54.926;73.496;2023-04-06T08:05:37;2.25;;;1.60;;
59907;SDS011;61804;54.926;73.496;2023-04-06T08:08:18;2.92;;;2.70;;
59907;SDS011;61804;54.926;73.496;2023-04-06T08:10:51;5.38;;;1.98;;
59907;SDS011;61804;54.926;73.496;2023-04-06T08:13:19;2.38;;;1.98;;
59907;SDS011;61804;54.926;73.496;2023-04-06T08:15:48;5.95;;;2.13;;
59907;SDS011;61804;54.926;73.496;2023-04-06T08:18:15;7.40;;;2.42;;
59907;SDS011;61804;54.926;73.496;2023-04-06T08:20:45;7.13;;;2.05;;
59907;SDS011;61804;54.926;73.496;2023-04-06T08:23:12;5.85;;;2.40;;
59907;SDS011;61804;54.926;73.496;2023-04-06T08:25:47;14.48;;;3.47;;
59907;SDS011;61804;54.926;73.496;2023-04-06T08:28:14;8.55;;;3.50;;
59907;SDS011;61804;54.926;73.496;2023-04-06T08:30:50;6.93;;;2.28;;
59907;SDS011;61804;54.926;73.496;2023-04-06T08:33:17;5.00;;;1.95;;
59907;SDS011;61804;54.926;73.496;2023-04-06T08:35:45;3.50;;;1.67;;
59907;SDS011;61804;54.926;73.496;2023-04-06T08:38:13;7.07;;;2.88;;
59907;SDS011;61804;54.926;73.496;2023-04-06T08:40:40;2.47;;;2.10;;
59907;SDS011;61804;54.926;73.496;2023-04-06T08:43:16;4.13;;;2.70;;
59907;SDS011;61804;54.926;73.496;2023-04-06T08:45:53;10.82;;;6.80;;
59907;SDS011;61804;54.926;73.496;2023-04-06T08:48:23;5.43;;;2.80;;
59907;SDS011;61804;54.926;73.496;2023-04-06T08:50:51;3.63;;;2.40;;
59907;SDS011;61804;54.926;73.496;2023-04-06T08:53:19;2.20;;;2.00;;
59907;SDS011;61804;54.926;73.496;2023-04-06T08:55:47;10.52;;;5.85;;
59907;SDS011;61804;54.926;73.496;2023-04-06T08:58:15;6.03;;;3.08;;
59907;SDS011;61804;54.926;73.496;2023-04-06T09:00:42;8.50;;;3.28;;
59907;SDS011;61804;54.926;73.496;2023-04-06T09:03:11;8.48;;;2.78;;
59907;SDS011;61804;54.926;73.496;2023-04-06T09:05:41;6.53;;;2.20;;
59907;SDS011;61804;54.926;73.496;2023-04-06T09:08:09;21.52;;;3.17;;
59907;SDS011;61804;54.926;73.496;2023-04-06T09:10:40;5.40;;;2.40;;
59907;SDS011;61804;54.926;73.496;2023-04-06T09:13:13;9.23;;;2.08;;
59907;SDS011;61804;54.926;73.496;2023-04-06T09:15:40;7.43;;;1.77;;
59907;SDS011;61804;54.926;73.496;2023-04-06T09:18:07;5.28;;;1.83;;
59907;SDS011;61804;54.926;73.496;2023-04-06T09:20:36;5.05;;;2.42;;
59907;SDS011;61804;54.926;73.496;2023-04-06T09:23:19;3.03;;;2.47;;
59907;SDS011;61804;54.926;73.496;2023-04-06T09:25:48;6.15;;;2.30;;
59907;SDS011;61804;54.926;73.496;2023-04-06T09:28:16;8.50;;;7.70;;
59907;SDS011;61804;54.926;73.496;2023-04-06T09:30:54;4.32;;;3.60;;
59907;SDS011;61804;54.926;73.496;2023-04-06T09:33:22;4.57;;;2.15;;
59907;SDS011;61804;54.926;73.496;2023-04-06T09:35:50;8.85;;;2.47;;
59907;SDS011;61804;54.926;73.496;2023-04-06T09:38:28;3.25;;;1.95;;
59907;SDS011;61804;54.926;73.496;2023-04-06T09:40:56;2.40;;;1.95;;
59907;SDS011;61804;54.926;73.496;2023-04-06T09:43:27;6.50;;;2.90;;
59907;SDS011;61804;54.926;73.496;2023-04-06T09:45:56;3.38;;;2.08;;
59907;SDS011;61804;54.926;73.496;2023-04-06T09:48:25;3.17;;;1.77;;
59907;SDS011;61804;54.926;73.496;2023-04-06T09:50:57;7.20;;;2.25;;
59907;SDS011;61804;54.926;73.496;2023-04-06T09:53:26;2.58;;;2.00;;
59907;SDS011;61804;54.926;73.496;2023-04-06T09:55:57;5.75;;;2.83;;
59907;SDS011;61804;54.926;73.496;2023-04-06T09:58:32;3.05;;;1.30;;
59907;SDS011;61804;54.926;73.496;2023-04-06T10:01:02;1.75;;;1.50;;
59907;SDS011;61804;54.926;73.496;2023-04-06T10:03:44;2.08;;;0.95;;
59907;SDS011;61804;54.926;73.496;2023-04-06T10:06:13;8.07;;;2.67;;
59907;SDS011;61804;54.926;73.496;2023-04-06T10:08:41;4.05;;;1.95;;
59907;SDS011;61804;54.926;73.496;2023-04-06T10:11:10;6.10;;;2.58;;
59907;SDS011;61804;54.926;73.496;2023-04-06T10:13:38;2.45;;;2.03;;
59907;SDS011;61804;54.926;73.496;2023-04-06T10:16:06;5.07;;;2.25;;
59907;SDS011;61804;54.926;73.496;2023-04-06T10:18:39;1.55;;;1.45;;
59907;SDS011;61804;54.926;73.496;2023-04-06T10:21:11;3.25;;;2.00;;
59907;SDS011;61804;54.926;73.496;2023-04-06T10:23:52;2.80;;;2.20;;
59907;SDS011;61804;54.926;73.496;2023-04-06T10:26:21;4.13;;;2.00;;
59907;SDS011;61804;54.926;73.496;2023-04-06T10:28:49;5.55;;;2.00;;
59907;SDS011;61804;54.926;73.496;2023-04-06T10:31:25;4.93;;;2.83;;
59907;SDS011;61804;54.926;73.496;2023-04-06T10:34:04;11.90;;;6.30;;
59907;SDS011;61804;54.926;73.496;2023-04-06T10:36:43;5.32;;;3.45;;
59907;SDS011;61804;54.926;73.496;2023-04-06T10:39:10;5.50;;;1.70;;
59907;SDS011;61804;54.926;73.496;2023-04-06T10:41:43;3.45;;;2.88;;
59907;SDS011;61804;54.926;73.496;2023-04-06T10:46:53;4.72;;;2.40;;
59907;SDS011;61804;54.926;73.496;2023-04-06T10:49:24;6.43;;;3.47;;
59907;SDS011;61804;54.926;73.496;2023-04-06T10:51:55;12.65;;;3.58;;
59907;SDS011;61804;54.926;73.496;2023-04-06T10:54:25;6.07;;;2.55;;
59907;SDS011;61804;54.926;73.496;2023-04-06T10:56:53;3.58;;;2.33;;
59907;SDS011;61804;54.926;73.496;2023-04-06T10:59:21;4.18;;;3.00;;
59907;SDS011;61804;54.926;73.496;2023-04-06T11:01:49;13.30;;;5.85;;
59907;SDS011;61804;54.926;73.496;2023-04-06T11:04:18;10.65;;;5.57;;
59907;SDS011;61804;54.926;73.496;2023-04-06T11:06:57;10.20;;;6.10;;
59907;SDS011;61804;54.926;73.496;2023-04-06T11:09:35;15.15;;;8.30;;
59907;SDS011;61804;54.926;73.496;2023-04-06T11:12:04;7.05;;;5.65;;
59907;SDS011;61804;54.926;73.496;2023-04-06T11:14:51;7.68;;;4.50;;
59907;SDS011;61804;54.926;73.496;2023-04-06T11:17:26;16.92;;;6.65;;
59907;SDS011;61804;54.926;73.496;2023-04-06T11:19:54;9.27;;;3.15;;
59907;SDS011;61804;54.926;73.496;2023-04-06T11:22:24;29.42;;;7.70;;
59907;SDS011;61804;54.926;73.496;2023-04-06T11:24:52;9.30;;;6.15;;
59907;SDS011;61804;54.926;73.496;2023-04-06T11:27:30;35.97;;;30.40;;
59907;SDS011;61804;54.926;73.496;2023-04-06T11:29:59;9.63;;;3.83;;
59907;SDS011;61804;54.926;73.496;2023-04-06T11:32:27;10.52;;;4.07;;
59907;SDS011;61804;54.926;73.496;2023-04-06T11:34:57;7.25;;;6.00;;
59907;SDS011;61804;54.926;73.496;2023-04-06T11:37:26;13.23;;;8.65;;
59907;SDS011;61804;54.926;73.496;2023-04-06T11:39:54;16.73;;;5.72;;
59907;SDS011;61804;54.926;73.496;2023-04-06T11:42:34;8.77;;;4.55;;
59907;SDS011;61804;54.926;73.496;2023-04-06T11:45:07;15.15;;;6.00;;
59907;SDS011;61804;54.926;73.496;2023-04-06T11:47:36;5.05;;;3.53;;
59907;SDS011;61804;54.926;73.496;2023-04-06T11:52:34;13.65;;;5.88;;
59907;SDS011;61804;54.926;73.496;2023-04-06T11:57:40;10.07;;;5.78;;
59907;SDS011;61804;54.926;73.496;2023-04-06T12:00:21;12.10;;;4.20;;
59907;SDS011;61804;54.926;73.496;2023-04-06T12:02:53;12.90;;;5.53;;
59907;SDS011;61804;54.926;73.496;2023-04-06T12:05:20;33.85;;;24.50;;
59907;SDS011;61804;54.926;73.496;2023-04-06T12:07:48;22.92;;;19.83;;
59907;SDS011;61804;54.926;73.496;2023-04-06T12:10:20;15.35;;;5.22;;
59907;SDS011;61804;54.926;73.496;2023-04-06T12:12:58;11.57;;;4.07;;
59907;SDS011;61804;54.926;73.496;2023-04-06T12:15:25;11.43;;;5.10;;
59907;SDS011;61804;54.926;73.496;2023-04-06T12:17:53;13.85;;;4.55;;
59907;SDS011;61804;54.926;73.496;2023-04-06T12:20:21;6.55;;;4.25;;
59907;SDS011;61804;54.926;73.496;2023-04-06T12:22:49;10.30;;;4.95;;
59907;SDS011;61804;54.926;73.496;2023-04-06T12:25:16;11.15;;;5.10;;
59907;SDS011;61804;54.926;73.496;2023-04-06T12:30:37;14.65;;;8.02;;
59907;SDS011;61804;54.926;73.496;2023-04-06T12:33:06;12.60;;;8.05;;
59907;SDS011;61804;54.926;73.496;2023-04-06T12:35:33;17.60;;;5.95;;
59907;SDS011;61804;54.926;73.496;2023-04-06T12:38:02;11.00;;;6.55;;
59907;SDS011;61804;54.926;73.496;2023-04-06T12:40:29;5.60;;;4.80;;
59907;SDS011;61804;54.926;73.496;2023-04-06T12:42:57;8.10;;;6.10;;
59907;SDS011;61804;54.926;73.496;2023-04-06T12:45:25;11.73;;;5.55;;
59907;SDS011;61804;54.926;73.496;2023-04-06T12:47:53;4.70;;;4.10;;
59907;SDS011;61804;54.926;73.496;2023-04-06T12:50:20;11.68;;;5.78;;
59907;SDS011;61804;54.926;73.496;2023-04-06T12:52:48;46.58;;;33.28;;
59907;SDS011;61804;54.926;73.496;2023-04-06T12:55:15;40.17;;;32.67;;
59907;SDS011;61804;54.926;73.496;2023-04-06T12:57:44;62.45;;;40.92;;
59907;SDS011;61804;54.926;73.496;2023-04-06T13:00:12;59.75;;;41.53;;
59907;SDS011;61804;54.926;73.496;2023-04-06T13:02:41;40.53;;;28.08;;
59907;SDS011;61804;54.926;73.496;2023-04-06T13:05:13;92.40;;;56.35;;
59907;SDS011;61804;54.926;73.496;2023-04-06T13:07:46;85.43;;;59.25;;
59907;SDS011;61804;54.926;73.496;2023-04-06T13:10:14;58.78;;;36.55;;
59907;SDS011;61804;54.926;73.496;2023-04-06T13:12:41;197.05;;;122.70;;
59907;SDS011;61804;54.926;73.496;2023-04-06T13:15:09;147.52;;;94.03;;
59907;SDS011;61804;54.926;73.496;2023-04-06T13:17:47;139.27;;;91.38;;
59907;SDS011;61804;54.926;73.496;2023-04-06T13:20:14;62.35;;;43.53;;
59907;SDS011;61804;54.926;73.496;2023-04-06T13:22:47;49.35;;;30.25;;
59907;SDS011;61804;54.926;73.496;2023-04-06T13:25:20;75.03;;;62.58;;
59907;SDS011;61804;54.926;73.496;2023-04-06T13:27:48;119.85;;;91.75;;
59907;SDS011;61804;54.926;73.496;2023-04-06T13:30:22;116.72;;;92.13;;
59907;SDS011;61804;54.926;73.496;2023-04-06T13:32:50;53.35;;;35.65;;
59907;SDS011;61804;54.926;73.496;2023-04-06T13:35:18;21.35;;;16.63;;
59907;SDS011;61804;54.926;73.496;2023-04-06T13:37:46;34.33;;;29.42;;
59907;SDS011;61804;54.926;73.496;2023-04-06T13:40:25;26.75;;;24.10;;
59907;SDS011;61804;54.926;73.496;2023-04-06T13:42:53;14.27;;;12.43;;
59907;SDS011;61804;54.926;73.496;2023-04-06T13:45:20;9.45;;;4.93;;
59907;SDS011;61804;54.926;73.496;2023-04-06T13:47:49;19.58;;;12.85;;
59907;SDS011;61804;54.926;73.496;2023-04-06T13:50:17;8.80;;;3.50;;
59907;SDS011;61804;54.926;73.496;2023-04-06T13:52:45;10.02;;;6.07;;
59907;SDS011;61804;54.926;73.496;2023-04-06T13:55:13;31.45;;;19.60;;
59907;SDS011;61804;54.926;73.496;2023-04-06T13:57:40;19.08;;;10.30;;
59907;SDS011;61804;54.926;73.496;2023-04-06T14:00:08;21.02;;;13.38;;
59907;SDS011;61804;54.926;73.496;2023-04-06T14:02:47;70.88;;;32.80;;
59907;SDS011;61804;54.926;73.496;2023-04-06T14:05:21;132.32;;;66.63;;
59907;SDS011;61804;54.926;73.496;2023-04-06T14:07:50;195.52;;;81.75;;
59907;SDS011;61804;54.926;73.496;2023-04-06T14:10:18;312.23;;;120.82;;
59907;SDS011;61804;54.926;73.496;2023-04-06T14:12:47;196.70;;;106.38;;
59907;SDS011;61804;54.926;73.496;2023-04-06T14:15:15;257.20;;;111.30;;
59907;SDS011;61804;54.926;73.496;2023-04-06T14:17:48;219.25;;;110.75;;
59907;SDS011;61804;54.926;73.496;2023-04-06T14:20:15;267.75;;;124.93;;
59907;SDS011;61804;54.926;73.496;2023-04-06T14:22:43;260.25;;;119.45;;
59907;SDS011;61804;54.926;73.496;2023-04-06T14:25:11;272.02;;;141.00;;
59907;SDS011;61804;54.926;73.496;2023-04-06T14:27:39;215.60;;;128.55;;
59907;SDS011;61804;54.926;73.496;2023-04-06T14:30:07;289.77;;;119.60;;
59907;SDS011;61804;54.926;73.496;2023-04-06T14:32:35;278.75;;;141.10;;
59907;SDS011;61804;54.926;73.496;2023-04-06T14:35:04;225.80;;;106.60;;
59907;SDS011;61804;54.926;73.496;2023-04-06T14:37:32;183.60;;;85.15;;
59907;SDS011;61804;54.926;73.496;2023-04-06T14:40:01;208.52;;;101.45;;
59907;SDS011;61804;54.926;73.496;2023-04-06T14:42:29;257.85;;;127.80;;
59907;SDS011;61804;54.926;73.496;2023-04-06T14:44:58;213.75;;;104.72;;
59907;SDS011;61804;54.926;73.496;2023-04-06T14:47:29;208.70;;;114.88;;
59907;SDS011;61804;54.926;73.496;2023-04-06T14:49:57;246.77;;;124.15;;
59907;SDS011;61804;54.926;73.496;2023-04-06T14:52:24;233.00;;;113.05;;
59907;SDS011;61804;54.926;73.496;2023-04-06T14:54:55;253.40;;;117.68;;
59907;SDS011;61804;54.926;73.496;2023-04-06T14:57:33;311.55;;;133.43;;
59907;SDS011;61804;54.926;73.496;2023-04-06T15:00:01;278.30;;;139.50;;
59907;SDS011;61804;54.926;73.496;2023-04-06T15:02:31;247.15;;;126.45;;